sensor_id;sensor_type;location;lat;lon;timestamp;pressure;altitude;pressure_sealevel;temperature;humidity
74230;BME280;62589;12.568;99.958;2023-02-28T00:00:34;101421.94;;;30.65;35.92
74230;BME280;62589;12.568;99.958;2023-02-28T00:03:01;101420.75;;;30.66;35.73
74230;BME280;62589;12.568;99.958;2023-02-28T00:05:28;101425.16;;;30.67;35.39
74230;BME280;62589;12.568;99.958;2023-02-28T00:07:55;101427.56;;;30.68;34.68
74230;BME280;62589;12.568;99.958;2023-02-28T00:10:25;101424.44;;;30.70;35.99
74230;BME280;62589;12.568;99.958;2023-02-28T00:12:53;101427.31;;;30.73;35.99
74230;BME280;62589;12.568;99.958;2023-02-28T00:15:23;101434.81;;;30.73;35.75
74230;BME280;62589;12.568;99.958;2023-02-28T00:17:50;101434.09;;;30.76;35.70
74230;BME280;62589;12.568;99.958;2023-02-28T00:20:17;101423.88;;;30.80;35.42
74230;BME280;62589;12.568;99.958;2023-02-28T00:22:47;101429.53;;;30.84;35.35
74230;BME280;62589;12.568;99.958;2023-02-28T00:25:15;101429.53;;;30.84;35.72
74230;BME280;62589;12.568;99.958;2023-02-28T00:27:43;101434.81;;;30.89;35.86
74230;BME280;62589;12.568;99.958;2023-02-28T00:30:13;101441.59;;;30.91;35.22
74230;BME280;62589;12.568;99.958;2023-02-28T00:32:40;101431.81;;;30.97;35.35
74230;BME280;62589;12.568;99.958;2023-02-28T00:35:08;101445.44;;;31.02;35.33
74230;BME280;62589;12.568;99.958;2023-02-28T00:37:34;101448.75;;;31.08;35.21
74230;BME280;62589;12.568;99.958;2023-02-28T00:40:01;101447.69;;;31.13;34.87
74230;BME280;62589;12.568;99.958;2023-02-28T00:42:30;101449.00;;;31.19;35.13
74230;BME280;62589;12.568;99.958;2023-02-28T00:44:57;101453.13;;;31.25;35.49
74230;BME280;62589;12.568;99.958;2023-02-28T00:47:23;101449.28;;;31.29;35.02
74230;BME280;62589;12.568;99.958;2023-02-28T00:49:49;101466.91;;;31.37;34.92
74230;BME280;62589;12.568;99.958;2023-02-28T00:52:16;101455.84;;;31.40;34.75
74230;BME280;62589;12.568;99.958;2023-02-28T00:54:42;101456.81;;;31.48;34.34
74230;BME280;62589;12.568;99.958;2023-02-28T00:57:09;101457.34;;;31.54;34.10
74230;BME280;62589;12.568;99.958;2023-02-28T00:59:35;101460.63;;;31.59;33.89
74230;BME280;62589;12.568;99.958;2023-02-28T01:02:01;101459.19;;;31.65;33.44
74230;BME280;62589;12.568;99.958;2023-02-28T01:04:28;101471.66;;;31.71;33.74
74230;BME280;62589;12.568;99.958;2023-02-28T01:06:55;101473.34;;;31.76;33.54
74230;BME280;62589;12.568;99.958;2023-02-28T01:09:21;101475.88;;;31.85;33.29
74230;BME280;62589;12.568;99.958;2023-02-28T01:11:47;101482.78;;;31.91;33.70
74230;BME280;62589;12.568;99.958;2023-02-28T01:14:16;101477.38;;;31.98;33.26
74230;BME280;62589;12.568;99.958;2023-02-28T01:16:43;101487.44;;;32.06;33.11
74230;BME280;62589;12.568;99.958;2023-02-28T01:19:09;101491.53;;;32.12;32.99
74230;BME280;62589;12.568;99.958;2023-02-28T01:21:36;101493.22;;;32.17;32.93
74230;BME280;62589;12.568;99.958;2023-02-28T01:24:04;101496.16;;;32.24;32.85
74230;BME280;62589;12.568;99.958;2023-02-28T01:26:31;101495.94;;;32.32;32.71
74230;BME280;62589;12.568;99.958;2023-02-28T01:28:58;101496.91;;;32.40;32.89
74230;BME280;62589;12.568;99.958;2023-02-28T01:31:24;101504.19;;;32.48;32.99
74230;BME280;62589;12.568;99.958;2023-02-28T01:33:51;101507.09;;;32.55;32.54
74230;BME280;62589;12.568;99.958;2023-02-28T01:36:21;101517.16;;;32.63;32.29
74230;BME280;62589;12.568;99.958;2023-02-28T01:38:48;101522.06;;;32.70;32.27
74230;BME280;62589;12.568;99.958;2023-02-28T01:41:21;101516.66;;;32.77;32.09
74230;BME280;62589;12.568;99.958;2023-02-28T01:44:54;101520.06;;;32.90;32.36
74230;BME280;62589;12.568;99.958;2023-02-28T01:46:50;101524.59;;;32.98;31.66
74230;BME280;62589;12.568;99.958;2023-02-28T01:49:18;101529.84;;;33.03;31.91
74230;BME280;62589;12.568;99.958;2023-02-28T01:51:48;101527.59;;;33.12;31.40
74230;BME280;62589;12.568;99.958;2023-02-28T01:54:30;101528.16;;;33.21;31.67
74230;BME280;62589;12.568;99.958;2023-02-28T01:57:03;101524.31;;;33.29;31.42
74230;BME280;62589;12.568;99.958;2023-02-28T01:59:35;101520.13;;;33.39;31.51
74230;BME280;62589;12.568;99.958;2023-02-28T02:02:05;101526.56;;;33.46;30.91
74230;BME280;62589;12.568;99.958;2023-02-28T02:04:41;101524.72;;;33.54;30.98
74230;BME280;62589;12.568;99.958;2023-02-28T02:07:11;101522.09;;;33.65;31.05
74230;BME280;62589;12.568;99.958;2023-02-28T02:09:38;101521.78;;;33.73;30.86
74230;BME280;62589;12.568;99.958;2023-02-28T02:15:24;101534.44;;;33.94;30.56
74230;BME280;62589;12.568;99.958;2023-02-28T02:17:52;101527.34;;;34.00;30.66
74230;BME280;62589;12.568;99.958;2023-02-28T02:29:21;101527.81;;;34.35;29.41
74230;BME280;62589;12.568;99.958;2023-02-28T02:32:28;101533.53;;;34.46;29.25
74230;BME280;62589;12.568;99.958;2023-02-28T02:35:14;101530.78;;;34.53;29.00
74230;BME280;62589;12.568;99.958;2023-02-28T02:37:57;101536.88;;;34.62;29.24
74230;BME280;62589;12.568;99.958;2023-02-28T02:40:52;101532.19;;;34.73;29.11
74230;BME280;62589;12.568;99.958;2023-02-28T02:46:28;101540.38;;;34.89;28.60
74230;BME280;62589;12.568;99.958;2023-02-28T02:48:58;101547.16;;;34.92;28.23
74230;BME280;62589;12.568;99.958;2023-02-28T02:51:27;101547.19;;;34.95;27.78
74230;BME280;62589;12.568;99.958;2023-02-28T02:54:01;101545.66;;;35.01;27.79
74230;BME280;62589;12.568;99.958;2023-02-28T02:56:31;101550.50;;;35.08;27.66
74230;BME280;62589;12.568;99.958;2023-02-28T02:59:02;101552.94;;;35.17;27.49
74230;BME280;62589;12.568;99.958;2023-02-28T03:01:31;101559.00;;;35.26;27.82
74230;BME280;62589;12.568;99.958;2023-02-28T03:04:02;101548.72;;;35.30;27.43
74230;BME280;62589;12.568;99.958;2023-02-28T03:06:29;101556.72;;;35.38;27.37
74230;BME280;62589;12.568;99.958;2023-02-28T03:09:14;101552.41;;;35.44;27.10
74230;BME280;62589;12.568;99.958;2023-02-28T03:11:41;101557.22;;;35.47;26.80
74230;BME280;62589;12.568;99.958;2023-02-28T03:25:59;101545.50;;;35.86;26.82
74230;BME280;62589;12.568;99.958;2023-02-28T03:31:33;101543.97;;;35.96;26.84
74230;BME280;62589;12.568;99.958;2023-02-28T03:34:08;101535.19;;;36.01;27.10
74230;BME280;62589;12.568;99.958;2023-02-28T03:36:39;101540.41;;;36.06;26.71
74230;BME280;62589;12.568;99.958;2023-02-28T03:39:37;101542.44;;;36.16;27.69
74230;BME280;62589;12.568;99.958;2023-02-28T03:42:23;101540.84;;;36.19;27.52
74230;BME280;62589;12.568;99.958;2023-02-28T03:45:02;101538.44;;;36.21;27.78
74230;BME280;62589;12.568;99.958;2023-02-28T03:50:37;101539.34;;;36.39;27.72
74230;BME280;62589;12.568;99.958;2023-02-28T03:53:19;101531.34;;;36.34;27.47
74230;BME280;62589;12.568;99.958;2023-02-28T03:55:49;101521.38;;;36.36;27.78
74230;BME280;62589;12.568;99.958;2023-02-28T04:03:47;101518.19;;;36.48;27.83
74230;BME280;62589;12.568;99.958;2023-02-28T04:06:17;101519.81;;;36.53;27.82
74230;BME280;62589;12.568;99.958;2023-02-28T04:08:45;101523.41;;;36.54;27.71
74230;BME280;62589;12.568;99.958;2023-02-28T04:11:34;101516.63;;;36.55;27.28
74230;BME280;62589;12.568;99.958;2023-02-28T04:14:02;101507.03;;;36.56;27.31
74230;BME280;62589;12.568;99.958;2023-02-28T04:16:31;101505.44;;;36.55;27.39
74230;BME280;62589;12.568;99.958;2023-02-28T04:18:58;101500.63;;;36.52;27.22
74230;BME280;62589;12.568;99.958;2023-02-28T04:21:33;101502.22;;;36.53;28.13
74230;BME280;62589;12.568;99.958;2023-02-28T04:24:00;101496.63;;;36.60;27.68
74230;BME280;62589;12.568;99.958;2023-02-28T04:26:30;101483.44;;;36.60;28.09
74230;BME280;62589;12.568;99.958;2023-02-28T04:28:57;101489.03;;;36.64;28.65
74230;BME280;62589;12.568;99.958;2023-02-28T04:31:23;101486.25;;;36.64;28.80
74230;BME280;62589;12.568;99.958;2023-02-28T04:33:49;101475.88;;;36.71;28.93
74230;BME280;62589;12.568;99.958;2023-02-28T04:36:16;101479.50;;;36.72;29.64
74230;BME280;62589;12.568;99.958;2023-02-28T04:38:44;101481.47;;;36.71;29.71
74230;BME280;62589;12.568;99.958;2023-02-28T04:41:12;101475.91;;;36.75;29.47
74230;BME280;62589;12.568;99.958;2023-02-28T04:43:39;101461.50;;;36.73;29.36
74230;BME280;62589;12.568;99.958;2023-02-28T04:46:06;101472.31;;;36.74;29.72
74230;BME280;62589;12.568;99.958;2023-02-28T04:48:34;101473.06;;;36.71;29.31
74230;BME280;62589;12.568;99.958;2023-02-28T04:51:03;101464.69;;;36.71;29.97
74230;BME280;62589;12.568;99.958;2023-02-28T04:53:30;101464.69;;;36.71;30.00
74230;BME280;62589;12.568;99.958;2023-02-28T04:55:57;101453.47;;;36.68;30.40
74230;BME280;62589;12.568;99.958;2023-02-28T04:58:24;101452.31;;;36.72;30.77
74230;BME280;62589;12.568;99.958;2023-02-28T05:00:51;101444.28;;;36.67;30.64
74230;BME280;62589;12.568;99.958;2023-02-28T05:03:18;101435.91;;;36.71;30.85
74230;BME280;62589;12.568;99.958;2023-02-28T05:05:46;101441.50;;;36.71;31.14
74230;BME280;62589;12.568;99.958;2023-02-28T05:08:13;101444.72;;;36.76;31.53
74230;BME280;62589;12.568;99.958;2023-02-28T05:10:39;101429.13;;;36.79;31.51
74230;BME280;62589;12.568;99.958;2023-02-28T05:13:06;101423.13;;;36.80;31.52
74230;BME280;62589;12.568;99.958;2023-02-28T05:15:32;101427.91;;;36.83;31.05
74230;BME280;62589;12.568;99.958;2023-02-28T05:17:59;101417.91;;;36.79;31.35
74230;BME280;62589;12.568;99.958;2023-02-28T05:20:25;101418.72;;;36.79;31.35
74230;BME280;62589;12.568;99.958;2023-02-28T05:22:55;101408.72;;;36.82;31.29
74230;BME280;62589;12.568;99.958;2023-02-28T05:25:23;101414.72;;;36.84;31.36
74230;BME280;62589;12.568;99.958;2023-02-28T05:27:49;101400.72;;;36.84;31.66
74230;BME280;62589;12.568;99.958;2023-02-28T05:30:16;101399.94;;;36.87;31.67
74230;BME280;62589;12.568;99.958;2023-02-28T05:32:43;101381.53;;;36.86;31.41
74230;BME280;62589;12.568;99.958;2023-02-28T05:35:11;101377.94;;;36.86;31.57
74230;BME280;62589;12.568;99.958;2023-02-28T05:37:38;101378.34;;;36.88;31.15
74230;BME280;62589;12.568;99.958;2023-02-28T05:40:06;101368.75;;;36.89;31.41
74230;BME280;62589;12.568;99.958;2023-02-28T05:42:36;101361.94;;;36.93;31.85
74230;BME280;62589;12.568;99.958;2023-02-28T05:45:04;101366.34;;;36.94;31.86
74230;BME280;62589;12.568;99.958;2023-02-28T05:47:31;101361.16;;;36.93;31.58
74230;BME280;62589;12.568;99.958;2023-02-28T05:49:57;101359.94;;;36.94;31.10
74230;BME280;62589;12.568;99.958;2023-02-28T05:52:23;101355.16;;;36.91;30.71
74230;BME280;62589;12.568;99.958;2023-02-28T05:54:50;101358.34;;;36.89;30.99
74230;BME280;62589;12.568;99.958;2023-02-28T05:57:16;101352.75;;;36.93;31.60
74230;BME280;62589;12.568;99.958;2023-02-28T05:59:43;101346.34;;;36.92;31.63
74230;BME280;62589;12.568;99.958;2023-02-28T06:02:14;101335.97;;;36.86;30.87
74230;BME280;62589;12.568;99.958;2023-02-28T06:04:41;101332.38;;;36.89;31.32
74230;BME280;62589;12.568;99.958;2023-02-28T06:07:09;101325.97;;;36.85;31.75
74230;BME280;62589;12.568;99.958;2023-02-28T06:09:35;101315.19;;;36.83;32.22
74230;BME280;62589;12.568;99.958;2023-02-28T06:12:04;101307.19;;;36.89;31.32
74230;BME280;62589;12.568;99.958;2023-02-28T06:14:32;101299.56;;;36.93;31.19
74230;BME280;62589;12.568;99.958;2023-02-28T06:17:00;101301.56;;;36.92;30.03
74230;BME280;62589;12.568;99.958;2023-02-28T06:19:27;101304.38;;;36.92;31.07
74230;BME280;62589;12.568;99.958;2023-02-28T06:21:54;101304.78;;;36.94;31.26
74230;BME280;62589;12.568;99.958;2023-02-28T06:24:24;101299.19;;;36.94;31.36
74230;BME280;62589;12.568;99.958;2023-02-28T06:26:51;101288.38;;;36.96;31.20
74230;BME280;62589;12.568;99.958;2023-02-28T06:29:17;101285.97;;;36.95;29.56
74230;BME280;62589;12.568;99.958;2023-02-28T06:31:45;101285.56;;;36.96;29.50
74230;BME280;62589;12.568;99.958;2023-02-28T06:34:13;101280.75;;;37.00;29.54
74230;BME280;62589;12.568;99.958;2023-02-28T06:36:40;101273.53;;;37.06;30.25
74230;BME280;62589;12.568;99.958;2023-02-28T06:39:08;101275.91;;;37.08;30.84
74230;BME280;62589;12.568;99.958;2023-02-28T06:41:35;101274.72;;;37.09;31.49
74230;BME280;62589;12.568;99.958;2023-02-28T06:44:12;101261.94;;;37.08;32.07
74230;BME280;62589;12.568;99.958;2023-02-28T06:46:40;101265.94;;;37.07;31.25
74230;BME280;62589;12.568;99.958;2023-02-28T06:49:08;101255.94;;;37.06;29.94
74230;BME280;62589;12.568;99.958;2023-02-28T06:51:41;101255.13;;;37.05;28.88
74230;BME280;62589;12.568;99.958;2023-02-28T06:54:09;101252.75;;;37.00;28.91
74230;BME280;62589;12.568;99.958;2023-02-28T06:56:36;101242.34;;;37.04;28.74
74230;BME280;62589;12.568;99.958;2023-02-28T06:59:04;101230.34;;;37.07;29.06
74230;BME280;62589;12.568;99.958;2023-02-28T07:01:31;101224.34;;;37.09;28.63
74230;BME280;62589;12.568;99.958;2023-02-28T07:03:58;101225.53;;;37.08;29.42
74230;BME280;62589;12.568;99.958;2023-02-28T07:06:26;101220.72;;;37.08;28.86
74230;BME280;62589;12.568;99.958;2023-02-28T07:08:53;101219.91;;;37.11;29.52
74230;BME280;62589;12.568;99.958;2023-02-28T07:11:21;101212.31;;;37.15;30.18
74230;BME280;62589;12.568;99.958;2023-02-28T07:13:49;101214.31;;;37.15;29.45
74230;BME280;62589;12.568;99.958;2023-02-28T07:16:16;101214.72;;;37.10;28.69
74230;BME280;62589;12.568;99.958;2023-02-28T07:18:43;101208.34;;;37.09;28.89
74230;BME280;62589;12.568;99.958;2023-02-28T07:21:10;101202.75;;;37.06;29.06
74230;BME280;62589;12.568;99.958;2023-02-28T07:23:38;101192.75;;;37.08;29.83
74230;BME280;62589;12.568;99.958;2023-02-28T07:26:06;101197.94;;;37.06;29.23
74230;BME280;62589;12.568;99.958;2023-02-28T07:28:32;101194.75;;;37.08;29.36
74230;BME280;62589;12.568;99.958;2023-02-28T07:31:07;101192.34;;;37.06;29.31
74230;BME280;62589;12.568;99.958;2023-02-28T07:33:33;101185.56;;;37.04;28.05
74230;BME280;62589;12.568;99.958;2023-02-28T07:36:02;101191.16;;;37.00;28.72
74230;BME280;62589;12.568;99.958;2023-02-28T07:38:30;101180.81;;;36.97;28.79
74230;BME280;62589;12.568;99.958;2023-02-28T07:40:56;101180.03;;;36.97;28.64
74230;BME280;62589;12.568;99.958;2023-02-28T07:43:22;101179.22;;;36.96;28.67
74230;BME280;62589;12.568;99.958;2023-02-28T07:45:50;101178.44;;;36.96;28.97
74230;BME280;62589;12.568;99.958;2023-02-28T07:48:16;101176.81;;;36.98;28.68
74230;BME280;62589;12.568;99.958;2023-02-28T07:50:42;101166.81;;;36.97;29.05
74230;BME280;62589;12.568;99.958;2023-02-28T07:53:09;101172.41;;;36.97;29.20
74230;BME280;62589;12.568;99.958;2023-02-28T07:55:35;101166.81;;;36.97;29.19
74230;BME280;62589;12.568;99.958;2023-02-28T07:58:01;101172.03;;;36.95;29.24
74230;BME280;62589;12.568;99.958;2023-02-28T08:00:31;101164.44;;;36.96;29.23
74230;BME280;62589;12.568;99.958;2023-02-28T08:02:58;101158.84;;;36.96;29.24
74230;BME280;62589;12.568;99.958;2023-02-28T08:05:24;101162.44;;;36.96;29.88
74230;BME280;62589;12.568;99.958;2023-02-28T08:07:51;101151.63;;;36.95;29.25
74230;BME280;62589;12.568;99.958;2023-02-28T08:10:17;101144.06;;;36.92;29.53
74230;BME280;62589;12.568;99.958;2023-02-28T08:12:43;101148.47;;;36.89;29.57
74230;BME280;62589;12.568;99.958;2023-02-28T08:15:10;101150.47;;;36.89;29.38
74230;BME280;62589;12.568;99.958;2023-02-28T08:17:37;101140.06;;;36.89;29.41
74230;BME280;62589;12.568;99.958;2023-02-28T08:20:03;101139.28;;;36.85;29.22
74230;BME280;62589;12.568;99.958;2023-02-28T08:22:30;101132.47;;;36.86;28.96
74230;BME280;62589;12.568;99.958;2023-02-28T08:24:56;101135.28;;;36.86;29.25
74230;BME280;62589;12.568;99.958;2023-02-28T08:27:23;101140.88;;;36.86;29.52
74230;BME280;62589;12.568;99.958;2023-02-28T08:29:49;101132.47;;;36.86;29.84
74230;BME280;62589;12.568;99.958;2023-02-28T08:32:15;101135.28;;;36.86;29.79
74230;BME280;62589;12.568;99.958;2023-02-28T08:34:42;101130.88;;;36.85;30.32
74230;BME280;62589;12.568;99.958;2023-02-28T08:37:08;101133.28;;;36.87;30.58
74230;BME280;62589;12.568;99.958;2023-02-28T08:39:35;101130.47;;;36.87;30.79
74230;BME280;62589;12.568;99.958;2023-02-28T08:42:03;101134.47;;;36.86;30.78
74230;BME280;62589;12.568;99.958;2023-02-28T08:44:29;101131.28;;;36.83;30.47
74230;BME280;62589;12.568;99.958;2023-02-28T08:46:56;101120.97;;;36.77;30.33
74230;BME280;62589;12.568;99.958;2023-02-28T08:49:23;101121.38;;;36.75;30.23
74230;BME280;62589;12.568;99.958;2023-02-28T08:51:49;101120.97;;;36.73;30.61
74230;BME280;62589;12.568;99.958;2023-02-28T08:54:15;101123.78;;;36.73;30.80
74230;BME280;62589;12.568;99.958;2023-02-28T08:56:46;101121.75;;;36.70;30.60
74230;BME280;62589;12.568;99.958;2023-02-28T08:59:13;101120.56;;;36.75;30.70
74230;BME280;62589;12.568;99.958;2023-02-28T09:01:40;101120.97;;;36.73;30.74
74230;BME280;62589;12.568;99.958;2023-02-28T09:04:07;101122.16;;;36.72;30.66
74230;BME280;62589;12.568;99.958;2023-02-28T09:06:35;101125.78;;;36.73;30.39
74230;BME280;62589;12.568;99.958;2023-02-28T09:09:02;101115.78;;;36.72;30.42
74230;BME280;62589;12.568;99.958;2023-02-28T09:11:30;101115.78;;;36.72;30.20
74230;BME280;62589;12.568;99.958;2023-02-28T09:13:57;101106.56;;;36.68;30.63
74230;BME280;62589;12.568;99.958;2023-02-28T09:16:26;101107.38;;;36.68;30.27
74230;BME280;62589;12.568;99.958;2023-02-28T09:18:52;101103.38;;;36.66;30.35
74230;BME280;62589;12.568;99.958;2023-02-28T09:21:19;101110.19;;;36.65;30.30
74230;BME280;62589;12.568;99.958;2023-02-28T09:23:49;101107.78;;;36.63;30.41
74230;BME280;62589;12.568;99.958;2023-02-28T09:26:19;101110.59;;;36.60;30.50
74230;BME280;62589;12.568;99.958;2023-02-28T09:28:45;101109.44;;;36.57;30.34
74230;BME280;62589;12.568;99.958;2023-02-28T09:31:16;101113.03;;;36.58;30.48
74230;BME280;62589;12.568;99.958;2023-02-28T09:33:48;101107.03;;;36.56;30.44
74230;BME280;62589;12.568;99.958;2023-02-28T09:36:15;101106.66;;;36.54;30.04
74230;BME280;62589;12.568;99.958;2023-02-28T09:38:41;101104.25;;;36.52;30.55
74230;BME280;62589;12.568;99.958;2023-02-28T09:41:21;101118.66;;;36.51;30.92
74230;BME280;62589;12.568;99.958;2023-02-28T09:43:53;101116.66;;;36.47;31.00
74230;BME280;62589;12.568;99.958;2023-02-28T09:46:41;101118.66;;;36.51;30.93
74230;BME280;62589;12.568;99.958;2023-02-28T09:49:24;101108.66;;;36.46;30.98
74230;BME280;62589;12.568;99.958;2023-02-28T09:52:03;101110.28;;;36.40;31.46
74230;BME280;62589;12.568;99.958;2023-02-28T09:54:31;101114.72;;;36.37;31.28
74230;BME280;62589;12.568;99.958;2023-02-28T10:00:18;101109.13;;;36.34;31.56
74230;BME280;62589;12.568;99.958;2023-02-28T10:08:55;101127.50;;;36.31;31.96
74230;BME280;62589;12.568;99.958;2023-02-28T10:11:24;101121.53;;;36.29;32.07
74230;BME280;62589;12.568;99.958;2023-02-28T10:14:02;101121.53;;;36.29;32.05
74230;BME280;62589;12.568;99.958;2023-02-28T10:22:08;101129.09;;;36.18;32.08
74230;BME280;62589;12.568;99.958;2023-02-28T10:24:55;101123.91;;;36.20;32.21
74230;BME280;62589;12.568;99.958;2023-02-28T10:27:30;101121.13;;;36.13;32.39
74230;BME280;62589;12.568;99.958;2023-02-28T10:29:59;101124.34;;;36.11;32.75
74230;BME280;62589;12.568;99.958;2023-02-28T10:32:36;101119.94;;;36.10;32.71
74230;BME280;62589;12.568;99.958;2023-02-28T10:35:19;101123.16;;;36.09;33.00
74230;BME280;62589;12.568;99.958;2023-02-28T10:37:53;101123.94;;;36.06;33.34
74230;BME280;62589;12.568;99.958;2023-02-28T10:40:35;101129.53;;;36.06;33.08
74230;BME280;62589;12.568;99.958;2023-02-28T10:43:05;101119.16;;;35.99;32.96
74230;BME280;62589;12.568;99.958;2023-02-28T10:45:35;101128.34;;;35.96;33.24
74230;BME280;62589;12.568;99.958;2023-02-28T10:50:52;101135.56;;;35.94;33.61
74230;BME280;62589;12.568;99.958;2023-02-28T10:53:37;101139.16;;;35.91;33.58
74230;BME280;62589;12.568;99.958;2023-02-28T10:56:13;101135.56;;;35.87;33.64
74230;BME280;62589;12.568;99.958;2023-02-28T11:01:48;101143.13;;;35.83;33.49
74230;BME280;62589;12.568;99.958;2023-02-28T11:04:35;101144.72;;;35.84;33.62
74230;BME280;62589;12.568;99.958;2023-02-28T11:09:52;101151.91;;;35.74;33.65
74230;BME280;62589;12.568;99.958;2023-02-28T11:15:04;101148.72;;;35.68;33.88
74230;BME280;62589;12.568;99.958;2023-02-28T11:17:32;101155.50;;;35.67;34.16
74230;BME280;62589;12.568;99.958;2023-02-28T11:20:03;101155.09;;;35.62;34.06
74230;BME280;62589;12.568;99.958;2023-02-28T11:22:37;101155.47;;;35.60;33.77
74230;BME280;62589;12.568;99.958;2023-02-28T11:25:27;101161.06;;;35.60;34.28
74230;BME280;62589;12.568;99.958;2023-02-28T11:27:59;101159.06;;;35.57;34.19
74230;BME280;62589;12.568;99.958;2023-02-28T11:30:36;101167.47;;;35.54;34.17
74230;BME280;62589;12.568;99.958;2023-02-28T11:35:57;101162.66;;;35.47;34.24
74230;BME280;62589;12.568;99.958;2023-02-28T11:38:26;101173.03;;;35.46;34.33
74230;BME280;62589;12.568;99.958;2023-02-28T11:50:14;101195.75;;;35.38;34.03
74230;BME280;62589;12.568;99.958;2023-02-28T11:52:54;101191.38;;;35.33;33.80
74230;BME280;62589;12.568;99.958;2023-02-28T11:55:32;101196.16;;;35.33;33.96
74230;BME280;62589;12.568;99.958;2023-02-28T11:58:26;101198.53;;;35.34;33.78
74230;BME280;62589;12.568;99.958;2023-02-28T12:01:25;101203.72;;;35.29;33.77
74230;BME280;62589;12.568;99.958;2023-02-28T12:07:15;101201.69;;;35.26;33.51
74230;BME280;62589;12.568;99.958;2023-02-28T12:10:10;101199.34;;;35.28;33.54
74230;BME280;62589;12.568;99.958;2023-02-28T12:16:17;101209.66;;;35.24;33.84
74230;BME280;62589;12.568;99.958;2023-02-28T12:19:07;101212.81;;;35.19;34.28
74230;BME280;62589;12.568;99.958;2023-02-28T12:27:19;101228.75;;;35.11;33.71
74230;BME280;62589;12.568;99.958;2023-02-28T12:32:49;101229.13;;;35.06;33.53
74230;BME280;62589;12.568;99.958;2023-02-28T12:35:26;101234.31;;;35.04;33.77
74230;BME280;62589;12.568;99.958;2023-02-28T12:38:19;101231.16;;;35.09;33.39
74230;BME280;62589;12.568;99.958;2023-02-28T12:41:05;101241.50;;;35.05;33.58
74230;BME280;62589;12.568;99.958;2023-02-28T12:43:40;101242.25;;;34.98;33.71
74230;BME280;62589;12.568;99.958;2023-02-28T12:46:22;101243.84;;;34.99;33.69
74230;BME280;62589;12.568;99.958;2023-02-28T12:48:55;101249.81;;;34.94;33.96
74230;BME280;62589;12.568;99.958;2023-02-28T12:51:25;101251.81;;;34.90;33.84
74230;BME280;62589;12.568;99.958;2023-02-28T12:57:18;101259.38;;;34.90;34.62
74230;BME280;62589;12.568;99.958;2023-02-28T12:59:55;101263.72;;;34.84;34.13
74230;BME280;62589;12.568;99.958;2023-02-28T13:11:00;101283.94;;;34.73;34.51
74230;BME280;62589;12.568;99.958;2023-02-28T13:13:28;101290.31;;;34.70;34.74
74230;BME280;62589;12.568;99.958;2023-02-28T13:16:15;101300.66;;;34.73;34.31
74230;BME280;62589;12.568;99.958;2023-02-28T13:18:46;101290.69;;;34.65;34.28
74230;BME280;62589;12.568;99.958;2023-02-28T13:21:27;101295.88;;;34.67;34.50
74230;BME280;62589;12.568;99.958;2023-02-28T13:24:03;101301.38;;;34.60;34.29
74230;BME280;62589;12.568;99.958;2023-02-28T13:29:40;101294.56;;;34.54;34.20
74230;BME280;62589;12.568;99.958;2023-02-28T13:32:32;101304.94;;;34.57;33.74
74230;BME280;62589;12.568;99.958;2023-02-28T13:35:14;101315.69;;;34.55;33.89
74230;BME280;62589;12.568;99.958;2023-02-28T13:37:47;101307.28;;;34.47;33.74
74230;BME280;62589;12.568;99.958;2023-02-28T13:40:28;101311.25;;;34.46;33.42
74230;BME280;62589;12.568;99.958;2023-02-28T13:42:55;101316.00;;;34.42;33.59
74230;BME280;62589;12.568;99.958;2023-02-28T13:45:27;101317.56;;;34.40;33.34
74230;BME280;62589;12.568;99.958;2023-02-28T13:48:01;101320.75;;;34.38;33.19
74230;BME280;62589;12.568;99.958;2023-02-28T13:50:33;101330.28;;;34.37;33.26
74230;BME280;62589;12.568;99.958;2023-02-28T13:56:21;101331.91;;;34.38;33.17
74230;BME280;62589;12.568;99.958;2023-02-28T14:04:59;101347.38;;;34.29;32.89
74230;BME280;62589;12.568;99.958;2023-02-28T14:07:39;101351.69;;;34.26;32.95
74230;BME280;62589;12.568;99.958;2023-02-28T14:10:28;101354.06;;;34.24;32.69
74230;BME280;62589;12.568;99.958;2023-02-28T14:13:02;101350.06;;;34.22;32.84
74230;BME280;62589;12.568;99.958;2023-02-28T14:21:28;101363.53;;;34.16;32.73
74230;BME280;62589;12.568;99.958;2023-02-28T14:30:36;101365.09;;;34.13;32.11
74230;BME280;62589;12.568;99.958;2023-02-28T14:36:42;101368.25;;;34.08;32.74
74230;BME280;62589;12.568;99.958;2023-02-28T14:39:17;101360.66;;;34.05;32.83
74230;BME280;62589;12.568;99.958;2023-02-28T14:41:46;101368.16;;;34.01;32.92
74230;BME280;62589;12.568;99.958;2023-02-28T14:44:19;101362.97;;;34.00;32.55
74230;BME280;62589;12.568;99.958;2023-02-28T14:46:52;101368.13;;;33.98;32.77
74230;BME280;62589;12.568;99.958;2023-02-28T14:49:29;101367.69;;;33.96;32.46
74230;BME280;62589;12.568;99.958;2023-02-28T14:54:43;101372.84;;;33.94;32.43
74230;BME280;62589;12.568;99.958;2023-02-28T14:57:29;101378.41;;;33.94;32.38
74230;BME280;62589;12.568;99.958;2023-02-28T15:00:15;101379.59;;;33.93;32.36
74230;BME280;62589;12.568;99.958;2023-02-28T15:02:43;101379.19;;;33.91;32.49
74230;BME280;62589;12.568;99.958;2023-02-28T15:05:34;101381.59;;;33.92;32.97
74230;BME280;62589;12.568;99.958;2023-02-28T15:08:13;101381.53;;;33.89;32.93
74230;BME280;62589;12.568;99.958;2023-02-28T15:10:59;101381.94;;;33.87;32.76
74230;BME280;62589;12.568;99.958;2023-02-28T15:13:39;101379.53;;;33.86;33.32
74230;BME280;62589;12.568;99.958;2023-02-28T15:16:25;101380.34;;;33.86;32.67